^^
Paulen-Weather Station Historical Data
Daily Summary for June 07, 2022 Units:  Metric    English   Both
Daily Weekly Monthly Yearly Custom
  High: Low: Average:
Temperature: 15 °C 14 °C 14.6 °C
Dew Point: 14 °C 14 °C 14 °C
Humidity: 97% 95% 96%
Wind Speed: 22km/h 7km/h 15.7km/h
Wind Gust: 20km/h - -
Wind- - ENE
Pressure: 1011.58 hPa 1010.36 hPa -
Precipitation: 0.41 mm    
Historical Graphs
 
 
Tabular Data for June 07, 2022
Time Temperature Dew Point Pressure Wind Wind Speed Wind Gust Humidity Rainfall Rate (Hourly) solar
00:04 15 °C 14 °C 1011.55 hPa N 8 km/h 7 km/h 95% 0 mm 0 W/m2
00:09 15 °C 14 °C 1011.51 hPa ENE 8 km/h 6 km/h 95% 0 mm 0 W/m2
00:14 15 °C 14 °C 1011.58 hPa SE 7 km/h 8 km/h 95% 0 mm 0 W/m2
00:19 15 °C 14 °C 1011.58 hPa ENE 9 km/h 8 km/h 95% 0 mm 0 W/m2
00:24 15 °C 14 °C 1011.55 hPa NNE 7 km/h 6 km/h 95% 0 mm 0 W/m2
00:29 15 °C 14 °C 1011.51 hPa NNE 9 km/h 7 km/h 95% 0 mm 0 W/m2
00:34 15 °C 14 °C 1011.51 hPa ENE 10 km/h 8 km/h 95% 0 mm 0 W/m2
00:39 15 °C 14 °C 1011.51 hPa SE 10 km/h 9 km/h 95% 0 mm 0 W/m2
00:44 15 °C 14 °C 1011.41 hPa ESE 10 km/h 8 km/h 95% 0 mm 0 W/m2
00:49 15 °C 14 °C 1011.41 hPa NE 14 km/h 11 km/h 95% 0 mm 0 W/m2
00:54 15 °C 14 °C 1011.34 hPa ENE 12 km/h 11 km/h 95% 0 mm 0 W/m2
00:59 15 °C 14 °C 1011.31 hPa NNE 15 km/h 14 km/h 95% 0 mm 0 W/m2
01:04 15 °C 14 °C 1011.18 hPa N 15 km/h 14 km/h 96% 0 mm 0 W/m2
01:09 15 °C 14 °C 1011.18 hPa NE 17 km/h 14 km/h 96% 0 mm 0 W/m2
01:14 15 °C 14 °C 1011.11 hPa N 16 km/h 13 km/h 96% 0 mm 0 W/m2
01:19 15 °C 14 °C 1011.04 hPa NNE 19 km/h 16 km/h 96% 0 mm 0 W/m2
01:24 15 °C 14 °C 1010.97 hPa NNE 18 km/h 16 km/h 96% 0 mm 0 W/m2
01:29 15 °C 14 °C 1010.94 hPa E 21 km/h 19 km/h 96% 0 mm 0 W/m2
01:34 15 °C 14 °C 1010.97 hPa E 22 km/h 20 km/h 96% 0 mm 0 W/m2
01:39 15 °C 14 °C 1010.97 hPa E 18 km/h 15 km/h 96% 0.2 mm 0 W/m2
01:44 15 °C 14 °C 1010.97 hPa ESE 16 km/h 13 km/h 96% 0.2 mm 0 W/m2
01:49 15 °C 14 °C 1010.97 hPa SE 13 km/h 11 km/h 96% 0.2 mm 0 W/m2
01:54 15 °C 14 °C 1010.94 hPa SE 13 km/h 12 km/h 96% 0.2 mm 0 W/m2
01:59 15 °C 14 °C 1010.9 hPa ENE 11 km/h 10 km/h 96% 0.2 mm 0 W/m2
02:04 15 °C 14 °C 1010.84 hPa N 18 km/h 16 km/h 96% 0.2 mm 0 W/m2
02:09 14 °C 14 °C 1010.77 hPa N 17 km/h 14 km/h 96% 0.2 mm 0 W/m2
02:14 14 °C 14 °C 1010.63 hPa N 14 km/h 13 km/h 96% 0.2 mm 0 W/m2
02:19 14 °C 14 °C 1010.63 hPa NNE 16 km/h 14 km/h 96% 0.2 mm 0 W/m2
02:24 14 °C 14 °C 1010.63 hPa NNE 21 km/h 17 km/h 96% 0.2 mm 0 W/m2
02:29 14 °C 14 °C 1010.63 hPa N 20 km/h 17 km/h 96% 0.2 mm 0 W/m2
02:34 14 °C 14 °C 1010.57 hPa NE 18 km/h 17 km/h 97% 0.2 mm 0 W/m2
02:39 14 °C 14 °C 1010.57 hPa ENE 22 km/h 18 km/h 97% 0 mm 0 W/m2
02:44 14 °C 14 °C 1010.57 hPa NNE 22 km/h 18 km/h 97% 0 mm 0 W/m2
02:49 14 °C 14 °C 1010.63 hPa NNE 18 km/h 14 km/h 97% 0 mm 0 W/m2
02:54 14 °C 14 °C 1010.6 hPa N 19 km/h 18 km/h 97% 0 mm 0 W/m2
02:59 14 °C 14 °C 1010.6 hPa N 22 km/h 19 km/h 97% 0 mm 0 W/m2
03:04 14 °C 14 °C 1010.53 hPa N 21 km/h 18 km/h 97% 0 mm 0 W/m2
03:09 14 °C 14 °C 1010.46 hPa NE 20 km/h 17 km/h 97% 0 mm 0 W/m2
03:14 14 °C 14 °C 1010.36 hPa NE 19 km/h 18 km/h 97% 0.2 mm 0 W/m2
03:19 14 °C 14 °C 1010.36 hPa N 20 km/h 18 km/h 97% 0.2 mm 0 W/m2
03:24 14 °C 14 °C 1010.36 hPa NNE 20 km/h 17 km/h 97% 0.2 mm 0 W/m2
Compliments of Weather Underground - 2 mb